sensor_id;sensor_type;location;lat;lon;timestamp;pressure;altitude;pressure_sealevel;temperature;humidity
67931;BME280;63902;52.000;5.954;2023-05-11T00:00:20;101031.72;;;11.87;100.00
67931;BME280;63902;52.000;5.954;2023-05-11T00:01:20;101025.66;;;11.83;100.00
67931;BME280;63902;52.000;5.954;2023-05-11T00:02:20;101022.13;;;11.83;100.00
67931;BME280;63902;52.000;5.954;2023-05-11T00:03:21;101029.94;;;11.88;100.00
67931;BME280;63902;52.000;5.954;2023-05-11T00:04:21;101028.16;;;11.88;100.00
67931;BME280;63902;52.000;5.954;2023-05-11T00:05:22;101028.16;;;11.88;100.00
67931;BME280;63902;52.000;5.954;2023-05-11T00:06:22;101019.38;;;11.84;100.00
67931;BME280;63902;52.000;5.954;2023-05-11T00:07:23;101032.53;;;11.89;100.00
67931;BME280;63902;52.000;5.954;2023-05-11T00:08:23;101025.50;;;11.88;100.00
67931;BME280;63902;52.000;5.954;2023-05-11T00:09:24;101027.28;;;11.88;100.00
67931;BME280;63902;52.000;5.954;2023-05-11T00:10:24;101010.78;;;11.79;100.00
67931;BME280;63902;52.000;5.954;2023-05-11T00:11:25;101022.88;;;11.86;100.00
67931;BME280;63902;52.000;5.954;2023-05-11T00:12:27;101019.38;;;11.86;100.00
67931;BME280;63902;52.000;5.954;2023-05-11T00:13:27;101023.75;;;11.87;100.00
67931;BME280;63902;52.000;5.954;2023-05-11T00:14:28;101027.28;;;11.88;100.00
67931;BME280;63902;52.000;5.954;2023-05-11T00:15:29;101022.88;;;11.86;100.00
67931;BME280;63902;52.000;5.954;2023-05-11T00:16:29;101022.03;;;11.84;100.00
67931;BME280;63902;52.000;5.954;2023-05-11T00:17:30;101033.38;;;11.90;100.00
67931;BME280;63902;52.000;5.954;2023-05-11T00:18:30;101021.03;;;11.89;100.00
67931;BME280;63902;52.000;5.954;2023-05-11T00:19:31;101031.59;;;11.90;100.00
67931;BME280;63902;52.000;5.954;2023-05-11T00:20:31;101021.84;;;11.91;100.00
67931;BME280;63902;52.000;5.954;2023-05-11T00:21:32;101020.94;;;11.90;100.00
67931;BME280;63902;52.000;5.954;2023-05-11T00:22:32;101021.75;;;11.92;100.00
67931;BME280;63902;52.000;5.954;2023-05-11T00:23:32;101020.03;;;11.91;100.00
67931;BME280;63902;52.000;5.954;2023-05-11T00:24:33;101018.25;;;11.92;100.00
67931;BME280;63902;52.000;5.954;2023-05-11T00:25:34;101017.28;;;11.93;100.00
67931;BME280;63902;52.000;5.954;2023-05-11T00:26:34;101015.56;;;11.92;100.00
67931;BME280;63902;52.000;5.954;2023-05-11T00:27:36;101006.81;;;11.90;100.00
67931;BME280;63902;52.000;5.954;2023-05-11T00:28:36;101006.75;;;11.91;100.00
67931;BME280;63902;52.000;5.954;2023-05-11T00:29:37;101014.72;;;11.91;100.00
67931;BME280;63902;52.000;5.954;2023-05-11T00:30:38;101011.22;;;11.91;100.00
67931;BME280;63902;52.000;5.954;2023-05-11T00:31:39;101006.75;;;11.91;100.00
67931;BME280;63902;52.000;5.954;2023-05-11T00:32:39;101013.78;;;11.92;100.00
67931;BME280;63902;52.000;5.954;2023-05-11T00:33:40;101004.13;;;11.90;100.00
67931;BME280;63902;52.000;5.954;2023-05-11T00:34:40;101008.56;;;11.91;100.00
67931;BME280;63902;52.000;5.954;2023-05-11T00:35:41;101006.94;;;11.86;100.00
67931;BME280;63902;52.000;5.954;2023-05-11T00:36:42;101013.72;;;11.94;100.00
67931;BME280;63902;52.000;5.954;2023-05-11T00:37:42;101006.81;;;11.90;100.00
67931;BME280;63902;52.000;5.954;2023-05-11T00:38:43;101013.66;;;11.95;100.00
67931;BME280;63902;52.000;5.954;2023-05-11T00:39:43;101018.97;;;11.95;100.00
67931;BME280;63902;52.000;5.954;2023-05-11T00:40:44;101009.28;;;11.94;100.00
67931;BME280;63902;52.000;5.954;2023-05-11T00:41:44;101019.91;;;11.94;100.00
67931;BME280;63902;52.000;5.954;2023-05-11T00:42:46;101017.28;;;11.93;100.00
67931;BME280;63902;52.000;5.954;2023-05-11T00:43:47;101009.31;;;11.93;100.00
67931;BME280;63902;52.000;5.954;2023-05-11T00:44:47;101014.63;;;11.93;100.00
67931;BME280;63902;52.000;5.954;2023-05-11T00:45:48;100998.06;;;11.88;100.00
67931;BME280;63902;52.000;5.954;2023-05-11T00:46:48;100994.63;;;11.84;100.00
67931;BME280;63902;52.000;5.954;2023-05-11T00:47:49;101007.66;;;11.90;100.00
67931;BME280;63902;52.000;5.954;2023-05-11T00:48:49;101007.75;;;11.89;100.00
67931;BME280;63902;52.000;5.954;2023-05-11T00:49:51;100998.97;;;11.86;100.00
67931;BME280;63902;52.000;5.954;2023-05-11T00:50:52;101004.28;;;11.86;100.00
67931;BME280;63902;52.000;5.954;2023-05-11T00:51:53;100994.81;;;11.79;100.00
67931;BME280;63902;52.000;5.954;2023-05-11T00:52:54;101007.88;;;11.85;100.00
67931;BME280;63902;52.000;5.954;2023-05-11T00:53:55;101010.44;;;11.87;100.00
67931;BME280;63902;52.000;5.954;2023-05-11T00:54:56;101008.88;;;11.81;100.00
67931;BME280;63902;52.000;5.954;2023-05-11T00:55:57;101008.75;;;11.84;100.00
67931;BME280;63902;52.000;5.954;2023-05-11T00:56:58;101021.97;;;11.88;100.00
67931;BME280;63902;52.000;5.954;2023-05-11T00:58:01;101026.41;;;11.87;100.00
67931;BME280;63902;52.000;5.954;2023-05-11T00:59:02;101019.38;;;11.86;100.00
67931;BME280;63902;52.000;5.954;2023-05-11T01:00:03;101021.88;;;11.89;100.00
67931;BME280;63902;52.000;5.954;2023-05-11T01:01:03;101012.44;;;11.82;100.00
67931;BME280;63902;52.000;5.954;2023-05-11T01:02:04;101022.84;;;11.88;100.00
67931;BME280;63902;52.000;5.954;2023-05-11T01:03:05;101013.28;;;11.82;100.00
67931;BME280;63902;52.000;5.954;2023-05-11T01:04:05;101017.66;;;11.83;100.00
67931;BME280;63902;52.000;5.954;2023-05-11T01:05:07;101014.06;;;11.84;100.00
67931;BME280;63902;52.000;5.954;2023-05-11T01:06:09;101015.84;;;11.85;100.00
67931;BME280;63902;52.000;5.954;2023-05-11T01:07:12;101008.97;;;11.80;100.00
67931;BME280;63902;52.000;5.954;2023-05-11T01:08:17;101018.53;;;11.84;100.00
67931;BME280;63902;52.000;5.954;2023-05-11T01:09:28;101015.09;;;11.82;100.00
67931;BME280;63902;52.000;5.954;2023-05-11T01:10:33;101015.00;;;11.83;100.00
67931;BME280;63902;52.000;5.954;2023-05-11T01:11:42;101016.72;;;11.84;100.00
67931;BME280;63902;52.000;5.954;2023-05-11T01:12:52;101019.38;;;11.84;100.00
67931;BME280;63902;52.000;5.954;2023-05-11T01:14:01;101021.28;;;11.82;100.00
67931;BME280;63902;52.000;5.954;2023-05-11T01:15:09;101014.28;;;11.80;100.00
67931;BME280;63902;52.000;5.954;2023-05-11T01:16:16;101020.47;;;11.80;100.00
67931;BME280;63902;52.000;5.954;2023-05-11T01:17:22;101016.94;;;11.80;100.00
67931;BME280;63902;52.000;5.954;2023-05-11T01:18:25;101019.66;;;11.78;100.00
67931;BME280;63902;52.000;5.954;2023-05-11T01:19:39;101017.84;;;11.79;100.00
67931;BME280;63902;52.000;5.954;2023-05-11T01:20:43;101006.59;;;11.74;100.00
67931;BME280;63902;52.000;5.954;2023-05-11T01:21:46;101019.66;;;11.78;100.00
67931;BME280;63902;52.000;5.954;2023-05-11T01:23:09;101017.09;;;11.77;100.00
67931;BME280;63902;52.000;5.954;2023-05-11T01:24:25;101017.09;;;11.77;100.00
67931;BME280;63902;52.000;5.954;2023-05-11T01:25:47;101015.34;;;11.76;100.00
67931;BME280;63902;52.000;5.954;2023-05-11T01:27:05;101019.78;;;11.75;100.00
67931;BME280;63902;52.000;5.954;2023-05-11T01:28:23;101019.78;;;11.75;100.00
67931;BME280;63902;52.000;5.954;2023-05-11T01:29:48;101018.13;;;11.73;100.00
67931;BME280;63902;52.000;5.954;2023-05-11T01:30:53;101020.66;;;11.76;100.00
67931;BME280;63902;52.000;5.954;2023-05-11T01:31:55;101007.72;;;11.68;100.00
67931;BME280;63902;52.000;5.954;2023-05-11T01:33:04;101019.78;;;11.75;100.00
67931;BME280;63902;52.000;5.954;2023-05-11T01:34:09;101020.72;;;11.74;100.00
67931;BME280;63902;52.000;5.954;2023-05-11T01:35:16;101018.00;;;11.76;100.00
67931;BME280;63902;52.000;5.954;2023-05-11T01:36:18;101022.44;;;11.75;100.00
67931;BME280;63902;52.000;5.954;2023-05-11T01:37:21;101021.59;;;11.75;100.00
67931;BME280;63902;52.000;5.954;2023-05-11T01:38:25;101018.94;;;11.75;100.00
67931;BME280;63902;52.000;5.954;2023-05-11T01:39:34;101026.06;;;11.74;100.00
67931;BME280;63902;52.000;5.954;2023-05-11T01:40:36;101023.38;;;11.74;100.00
67931;BME280;63902;52.000;5.954;2023-05-11T01:41:39;101017.34;;;11.71;100.00
67931;BME280;63902;52.000;5.954;2023-05-11T01:42:44;101021.53;;;11.76;100.00
67931;BME280;63902;52.000;5.954;2023-05-11T01:43:51;101030.28;;;11.78;100.00
67931;BME280;63902;52.000;5.954;2023-05-11T01:44:53;101022.41;;;11.77;100.00
67931;BME280;63902;52.000;5.954;2023-05-11T01:45:59;101013.81;;;11.70;100.00
67931;BME280;63902;52.000;5.954;2023-05-11T01:47:01;101021.66;;;11.73;100.00
67931;BME280;63902;52.000;5.954;2023-05-11T01:48:05;101022.53;;;11.74;100.00
67931;BME280;63902;52.000;5.954;2023-05-11T01:49:06;101023.31;;;11.76;100.00
67931;BME280;63902;52.000;5.954;2023-05-11T01:50:07;101029.50;;;11.76;100.00
67931;BME280;63902;52.000;5.954;2023-05-11T01:51:09;101019.13;;;11.70;100.00
67931;BME280;63902;52.000;5.954;2023-05-11T01:52:10;101033.03;;;11.77;100.00
67931;BME280;63902;52.000;5.954;2023-05-11T01:53:12;101030.28;;;11.78;100.00
67931;BME280;63902;52.000;5.954;2023-05-11T01:54:14;101033.81;;;11.79;100.00
67931;BME280;63902;52.000;5.954;2023-05-11T01:55:18;101035.59;;;11.78;100.00
67931;BME280;63902;52.000;5.954;2023-05-11T01:56:20;101034.75;;;11.78;100.00
67931;BME280;63902;52.000;5.954;2023-05-11T01:57:22;101034.75;;;11.78;100.00
67931;BME280;63902;52.000;5.954;2023-05-11T01:58:24;101037.41;;;11.78;100.00
67931;BME280;63902;52.000;5.954;2023-05-11T01:59:26;101012.22;;;11.66;100.00
67931;BME280;63902;52.000;5.954;2023-05-11T02:00:27;101042.81;;;11.76;100.00
67931;BME280;63902;52.000;5.954;2023-05-11T02:01:30;101036.59;;;11.76;100.00
67931;BME280;63902;52.000;5.954;2023-05-11T02:02:34;101041.06;;;11.75;100.00
67931;BME280;63902;52.000;5.954;2023-05-11T02:03:35;101036.72;;;11.73;100.00
67931;BME280;63902;52.000;5.954;2023-05-11T02:04:37;101024.56;;;11.67;100.00
67931;BME280;63902;52.000;5.954;2023-05-11T02:05:39;101027.09;;;11.70;100.00
67931;BME280;63902;52.000;5.954;2023-05-11T02:06:42;101033.09;;;11.75;100.00
67931;BME280;63902;52.000;5.954;2023-05-11T02:07:44;101041.91;;;11.76;100.00
67931;BME280;63902;52.000;5.954;2023-05-11T02:08:47;101039.34;;;11.74;100.00
67931;BME280;63902;52.000;5.954;2023-05-11T02:09:50;101036.69;;;11.74;100.00
67931;BME280;63902;52.000;5.954;2023-05-11T02:10:53;101039.34;;;11.74;100.00
67931;BME280;63902;52.000;5.954;2023-05-11T02:11:54;101042.84;;;11.75;100.00
67931;BME280;63902;52.000;5.954;2023-05-11T02:12:56;101036.69;;;11.74;100.00
67931;BME280;63902;52.000;5.954;2023-05-11T02:13:58;101038.41;;;11.75;100.00
67931;BME280;63902;52.000;5.954;2023-05-11T02:15:00;101047.22;;;11.76;100.00
67931;BME280;63902;52.000;5.954;2023-05-11T02:16:03;101043.56;;;11.78;100.00
67931;BME280;63902;52.000;5.954;2023-05-11T02:17:07;101042.66;;;11.79;100.00
67931;BME280;63902;52.000;5.954;2023-05-11T02:18:12;101020.06;;;11.69;100.00
67931;BME280;63902;52.000;5.954;2023-05-11T02:19:13;101043.53;;;11.80;100.00
67931;BME280;63902;52.000;5.954;2023-05-11T02:20:14;101040.78;;;11.81;100.00
67931;BME280;63902;52.000;5.954;2023-05-11T02:21:15;101033.81;;;11.79;100.00
67931;BME280;63902;52.000;5.954;2023-05-11T02:22:16;101041.69;;;11.82;100.00
67931;BME280;63902;52.000;5.954;2023-05-11T02:23:18;101038.34;;;11.77;100.00
67931;BME280;63902;52.000;5.954;2023-05-11T02:24:22;101038.13;;;11.81;100.00
67931;BME280;63902;52.000;5.954;2023-05-11T02:25:23;101042.66;;;11.79;100.00
67931;BME280;63902;52.000;5.954;2023-05-11T02:26:24;101046.09;;;11.81;100.00
67931;BME280;63902;52.000;5.954;2023-05-11T02:27:25;101038.22;;;11.80;100.00
67931;BME280;63902;52.000;5.954;2023-05-11T02:28:25;101042.66;;;11.79;100.00
67931;BME280;63902;52.000;5.954;2023-05-11T02:29:26;101040.06;;;11.78;100.00
67931;BME280;63902;52.000;5.954;2023-05-11T02:30:28;101039.34;;;11.74;100.00
67931;BME280;63902;52.000;5.954;2023-05-11T02:31:31;101042.91;;;11.73;100.00
67931;BME280;63902;52.000;5.954;2023-05-11T02:32:43;101040.19;;;11.75;100.00
67931;BME280;63902;52.000;5.954;2023-05-11T02:33:48;101046.38;;;11.75;100.00
67931;BME280;63902;52.000;5.954;2023-05-11T02:34:59;101046.38;;;11.75;100.00
67931;BME280;63902;52.000;5.954;2023-05-11T02:36:01;101040.19;;;11.75;100.00
67931;BME280;63902;52.000;5.954;2023-05-11T02:37:05;101042.81;;;11.76;100.00
67931;BME280;63902;52.000;5.954;2023-05-11T02:38:09;101034.03;;;11.74;100.00
67931;BME280;63902;52.000;5.954;2023-05-11T02:39:11;101035.75;;;11.75;100.00
67931;BME280;63902;52.000;5.954;2023-05-11T02:40:16;101025.38;;;11.69;100.00
67931;BME280;63902;52.000;5.954;2023-05-11T02:41:22;101040.31;;;11.72;100.00
67931;BME280;63902;52.000;5.954;2023-05-11T02:42:26;101029.75;;;11.70;100.00
67931;BME280;63902;52.000;5.954;2023-05-11T02:43:31;101034.03;;;11.74;100.00
67931;BME280;63902;52.000;5.954;2023-05-11T02:44:35;101034.88;;;11.75;100.00
67931;BME280;63902;52.000;5.954;2023-05-11T02:45:41;101034.03;;;11.74;100.00
67931;BME280;63902;52.000;5.954;2023-05-11T02:46:45;101024.31;;;11.73;100.00
67931;BME280;63902;52.000;5.954;2023-05-11T02:47:51;101028.75;;;11.73;100.00
67931;BME280;63902;52.000;5.954;2023-05-11T02:48:59;101020.06;;;11.69;100.00
67931;BME280;63902;52.000;5.954;2023-05-11T02:50:02;101025.19;;;11.74;100.00
67931;BME280;63902;52.000;5.954;2023-05-11T02:51:05;101026.97;;;11.73;100.00
67931;BME280;63902;52.000;5.954;2023-05-11T02:52:07;101033.22;;;11.72;100.00
67931;BME280;63902;52.000;5.954;2023-05-11T02:53:13;101034.16;;;11.71;100.00
67931;BME280;63902;52.000;5.954;2023-05-11T02:54:14;101040.31;;;11.72;100.00
67931;BME280;63902;52.000;5.954;2023-05-11T02:55:16;101042.13;;;11.71;100.00
67931;BME280;63902;52.000;5.954;2023-05-11T02:56:19;101036.81;;;11.71;100.00
67931;BME280;63902;52.000;5.954;2023-05-11T02:57:20;101026.44;;;11.65;100.00
67931;BME280;63902;52.000;5.954;2023-05-11T02:58:22;101028.88;;;11.70;100.00
67931;BME280;63902;52.000;5.954;2023-05-11T02:59:23;101030.81;;;11.66;100.00
67931;BME280;63902;52.000;5.954;2023-05-11T03:00:24;101033.41;;;11.68;100.00
67931;BME280;63902;52.000;5.954;2023-05-11T03:01:25;101016.19;;;11.56;100.00
67931;BME280;63902;52.000;5.954;2023-05-11T03:02:26;101028.34;;;11.61;100.00
67931;BME280;63902;52.000;5.954;2023-05-11T03:03:28;101033.47;;;11.66;100.00
67931;BME280;63902;52.000;5.954;2023-05-11T03:04:28;101031.75;;;11.65;100.00
67931;BME280;63902;52.000;5.954;2023-05-11T03:05:29;101037.06;;;11.65;100.00
67931;BME280;63902;52.000;5.954;2023-05-11T03:06:30;101035.28;;;11.65;100.00
67931;BME280;63902;52.000;5.954;2023-05-11T03:07:31;101033.53;;;11.64;100.00
67931;BME280;63902;52.000;5.954;2023-05-11T03:08:32;101030.88;;;11.64;100.00
67931;BME280;63902;52.000;5.954;2023-05-11T03:09:33;101036.19;;;11.64;100.00
67931;BME280;63902;52.000;5.954;2023-05-11T03:10:34;101037.97;;;11.64;100.00
67931;BME280;63902;52.000;5.954;2023-05-11T03:11:36;101042.44;;;11.63;100.00
67931;BME280;63902;52.000;5.954;2023-05-11T03:12:37;101038.06;;;11.62;100.00
67931;BME280;63902;52.000;5.954;2023-05-11T03:13:38;101036.31;;;11.61;100.00
67931;BME280;63902;52.000;5.954;2023-05-11T03:14:39;101037.25;;;11.60;100.00
67931;BME280;63902;52.000;5.954;2023-05-11T03:15:40;101032.84;;;11.59;100.00
67931;BME280;63902;52.000;5.954;2023-05-11T03:16:42;101034.66;;;11.59;100.00
67931;BME280;63902;52.000;5.954;2023-05-11T03:17:43;101019.78;;;11.55;100.00
67931;BME280;63902;52.000;5.954;2023-05-11T03:18:47;101030.31;;;11.56;100.00
67931;BME280;63902;52.000;5.954;2023-05-11T03:19:48;101026.94;;;11.53;100.00
67931;BME280;63902;52.000;5.954;2023-05-11T03:20:50;101035.72;;;11.55;100.00
67931;BME280;63902;52.000;5.954;2023-05-11T03:21:51;101025.94;;;11.55;100.00
67931;BME280;63902;52.000;5.954;2023-05-11T03:22:52;101031.31;;;11.54;100.00
67931;BME280;63902;52.000;5.954;2023-05-11T03:23:53;101030.41;;;11.55;100.00
67931;BME280;63902;52.000;5.954;2023-05-11T03:24:53;101030.41;;;11.55;100.00
67931;BME280;63902;52.000;5.954;2023-05-11T03:25:54;101028.66;;;11.54;100.00
67931;BME280;63902;52.000;5.954;2023-05-11T03:26:56;101031.25;;;11.55;100.00
67931;BME280;63902;52.000;5.954;2023-05-11T03:27:57;101032.22;;;11.54;100.00
67931;BME280;63902;52.000;5.954;2023-05-11T03:29:00;101009.66;;;11.42;100.00
67931;BME280;63902;52.000;5.954;2023-05-11T03:30:03;101027.03;;;11.51;100.00
67931;BME280;63902;52.000;5.954;2023-05-11T03:31:06;101025.34;;;11.49;100.00
67931;BME280;63902;52.000;5.954;2023-05-11T03:32:07;101024.47;;;11.48;100.00
67931;BME280;63902;52.000;5.954;2023-05-11T03:33:08;101024.53;;;11.47;100.00
67931;BME280;63902;52.000;5.954;2023-05-11T03:34:10;101026.41;;;11.45;100.00
67931;BME280;63902;52.000;5.954;2023-05-11T03:35:10;101026.41;;;11.45;100.00
67931;BME280;63902;52.000;5.954;2023-05-11T03:36:11;101016.84;;;11.40;100.00
67931;BME280;63902;52.000;5.954;2023-05-11T03:37:13;101015.16;;;11.38;100.00
67931;BME280;63902;52.000;5.954;2023-05-11T03:38:15;101025.53;;;11.44;100.00
67931;BME280;63902;52.000;5.954;2023-05-11T03:39:16;101030.00;;;11.43;100.00
67931;BME280;63902;52.000;5.954;2023-05-11T03:40:18;101020.22;;;11.44;100.00
67931;BME280;63902;52.000;5.954;2023-05-11T03:41:20;101022.84;;;11.46;100.00
67931;BME280;63902;52.000;5.954;2023-05-11T03:42:22;101027.25;;;11.45;100.00
67931;BME280;63902;52.000;5.954;2023-05-11T03:43:25;101025.53;;;11.44;100.00
67931;BME280;63902;52.000;5.954;2023-05-11T03:44:30;101019.38;;;11.43;100.00
67931;BME280;63902;52.000;5.954;2023-05-11T03:45:32;101024.72;;;11.42;100.00
67931;BME280;63902;52.000;5.954;2023-05-11T03:46:34;101030.84;;;11.44;100.00
67931;BME280;63902;52.000;5.954;2023-05-11T03:47:38;101029.13;;;11.43;100.00
67931;BME280;63902;52.000;5.954;2023-05-11T03:48:40;101036.16;;;11.44;100.00
67931;BME280;63902;52.000;5.954;2023-05-11T03:49:43;101029.06;;;11.45;100.00
67931;BME280;63902;52.000;5.954;2023-05-11T03:50:44;101029.13;;;11.43;100.00
67931;BME280;63902;52.000;5.954;2023-05-11T03:51:45;101030.97;;;11.41;100.00
67931;BME280;63902;52.000;5.954;2023-05-11T03:52:46;101031.72;;;11.45;100.00
67931;BME280;63902;52.000;5.954;2023-05-11T03:53:48;101030.84;;;11.44;100.00
67931;BME280;63902;52.000;5.954;2023-05-11T03:54:48;101030.13;;;11.40;100.00
67931;BME280;63902;52.000;5.954;2023-05-11T03:55:49;101037.03;;;11.45;100.00
67931;BME280;63902;52.000;5.954;2023-05-11T03:56:50;101032.56;;;11.45;100.00
67931;BME280;63902;52.000;5.954;2023-05-11T03:57:50;101012.56;;;11.36;100.00
67931;BME280;63902;52.000;5.954;2023-05-11T03:58:51;101024.69;;;11.43;100.00
67931;BME280;63902;52.000;5.954;2023-05-11T03:59:52;101025.53;;;11.44;100.00
67931;BME280;63902;52.000;5.954;2023-05-11T04:00:53;101014.31;;;11.37;100.00
67931;BME280;63902;52.000;5.954;2023-05-11T04:01:53;101021.16;;;11.43;100.00
67931;BME280;63902;52.000;5.954;2023-05-11T04:02:55;101026.47;;;11.43;100.00
67931;BME280;63902;52.000;5.954;2023-05-11T04:03:55;101024.72;;;11.42;100.00
67931;BME280;63902;52.000;5.954;2023-05-11T04:04:57;101027.38;;;11.42;100.00
67931;BME280;63902;52.000;5.954;2023-05-11T04:05:58;101032.69;;;11.42;100.00
67931;BME280;63902;52.000;5.954;2023-05-11T04:06:58;101032.78;;;11.40;100.00
67931;BME280;63902;52.000;5.954;2023-05-11T04:07:59;101027.47;;;11.40;100.00
67931;BME280;63902;52.000;5.954;2023-05-11T04:09:01;101031.91;;;11.40;100.00
67931;BME280;63902;52.000;5.954;2023-05-11T04:10:01;101032.78;;;11.40;100.00
67931;BME280;63902;52.000;5.954;2023-05-11T04:11:02;101036.34;;;11.39;100.00
67931;BME280;63902;52.000;5.954;2023-05-11T04:12:03;101033.03;;;11.34;100.00
67931;BME280;63902;52.000;5.954;2023-05-11T04:13:03;101031.16;;;11.36;100.00
67931;BME280;63902;52.000;5.954;2023-05-11T04:14:04;101037.41;;;11.35;100.00
67931;BME280;63902;52.000;5.954;2023-05-11T04:15:05;101033.94;;;11.33;100.00
67931;BME280;63902;52.000;5.954;2023-05-11T04:16:06;101036.59;;;11.33;100.00
67931;BME280;63902;52.000;5.954;2023-05-11T04:17:07;101037.41;;;11.35;100.00
67931;BME280;63902;52.000;5.954;2023-05-11T04:18:07;101035.78;;;11.31;100.00
67931;BME280;63902;52.000;5.954;2023-05-11T04:19:08;101043.56;;;11.36;100.00
67931;BME280;63902;52.000;5.954;2023-05-11T04:20:10;101045.28;;;11.37;100.00
67931;BME280;63902;52.000;5.954;2023-05-11T04:21:10;101046.97;;;11.39;100.00
67931;BME280;63902;52.000;5.954;2023-05-11T04:22:11;101035.47;;;11.39;100.00
67931;BME280;63902;52.000;5.954;2023-05-11T04:23:12;101039.88;;;11.40;100.00
67931;BME280;63902;52.000;5.954;2023-05-11T04:24:12;101018.00;;;11.33;100.00
67931;BME280;63902;52.000;5.954;2023-05-11T04:25:13;101033.56;;;11.42;100.00
67931;BME280;63902;52.000;5.954;2023-05-11T04:26:14;101039.75;;;11.43;100.00
67931;BME280;63902;52.000;5.954;2023-05-11T04:27:14;101043.28;;;11.43;100.00
67931;BME280;63902;52.000;5.954;2023-05-11T04:28:14;101045.94;;;11.43;100.00
67931;BME280;63902;52.000;5.954;2023-05-11T04:29:15;101024.19;;;11.34;100.00
67931;BME280;63902;52.000;5.954;2023-05-11T04:30:16;101044.09;;;11.46;100.00
67931;BME280;63902;52.000;5.954;2023-05-11T04:31:16;101043.13;;;11.47;100.00
67931;BME280;63902;52.000;5.954;2023-05-11T04:32:17;101041.34;;;11.47;100.00
67931;BME280;63902;52.000;5.954;2023-05-11T04:33:17;101044.84;;;11.48;100.00
67931;BME280;63902;52.000;5.954;2023-05-11T04:34:17;101046.59;;;11.49;100.00
67931;BME280;63902;52.000;5.954;2023-05-11T04:35:19;101050.03;;;11.51;100.00
67931;BME280;63902;52.000;5.954;2023-05-11T04:36:20;101057.16;;;11.50;100.00
67931;BME280;63902;52.000;5.954;2023-05-11T04:37:20;101058.00;;;11.51;100.00
67931;BME280;63902;52.000;5.954;2023-05-11T04:38:21;101051.91;;;11.49;100.00
67931;BME280;63902;52.000;5.954;2023-05-11T04:39:22;101055.44;;;11.49;100.00
67931;BME280;63902;52.000;5.954;2023-05-11T04:40:22;101050.13;;;11.49;100.00
67931;BME280;63902;52.000;5.954;2023-05-11T04:41:23;101050.97;;;11.50;100.00
67931;BME280;63902;52.000;5.954;2023-05-11T04:42:23;101052.69;;;11.51;100.00
67931;BME280;63902;52.000;5.954;2023-05-11T04:43:23;101052.69;;;11.51;100.00
67931;BME280;63902;52.000;5.954;2023-05-11T04:44:24;101051.78;;;11.52;100.00
67931;BME280;63902;52.000;5.954;2023-05-11T04:45:24;101056.16;;;11.53;100.00
67931;BME280;63902;52.000;5.954;2023-05-11T04:46:25;101049.13;;;11.52;100.00
67931;BME280;63902;52.000;5.954;2023-05-11T04:47:25;101054.38;;;11.53;100.00
67931;BME280;63902;52.000;5.954;2023-05-11T04:48:26;101057.88;;;11.54;100.00
67931;BME280;63902;52.000;5.954;2023-05-11T04:49:26;101050.03;;;11.51;100.00
67931;BME280;63902;52.000;5.954;2023-05-11T04:50:28;101060.50;;;11.55;100.00
67931;BME280;63902;52.000;5.954;2023-05-11T04:51:29;101017.97;;;11.35;100.00
67931;BME280;63902;52.000;5.954;2023-05-11T04:52:29;101054.22;;;11.56;100.00
67931;BME280;63902;52.000;5.954;2023-05-11T04:53:30;101054.31;;;11.55;100.00
67931;BME280;63902;52.000;5.954;2023-05-11T04:54:30;101053.25;;;11.59;100.00
67931;BME280;63902;52.000;5.954;2023-05-11T04:55:31;101051.72;;;11.53;100.00
67931;BME280;63902;52.000;5.954;2023-05-11T04:56:32;101049.88;;;11.55;100.00
67931;BME280;63902;52.000;5.954;2023-05-11T04:57:33;101059.38;;;11.61;100.00
67931;BME280;63902;52.000;5.954;2023-05-11T04:58:33;101061.09;;;11.62;100.00
67931;BME280;63902;52.000;5.954;2023-05-11T04:59:34;101056.72;;;11.61;100.00
67931;BME280;63902;52.000;5.954;2023-05-11T05:00:34;101061.09;;;11.62;100.00
67931;BME280;63902;52.000;5.954;2023-05-11T05:01:35;101065.50;;;11.63;100.00
67931;BME280;63902;52.000;5.954;2023-05-11T05:02:35;101056.59;;;11.64;100.00
67931;BME280;63902;52.000;5.954;2023-05-11T05:03:36;101066.31;;;11.65;100.00
67931;BME280;63902;52.000;5.954;2023-05-11T05:04:36;101060.03;;;11.66;100.00
67931;BME280;63902;52.000;5.954;2023-05-11T05:05:38;101062.69;;;11.66;100.00
67931;BME280;63902;52.000;5.954;2023-05-11T05:06:39;101059.38;;;11.61;100.00
67931;BME280;63902;52.000;5.954;2023-05-11T05:07:39;101061.91;;;11.64;100.00
67931;BME280;63902;52.000;5.954;2023-05-11T05:08:39;101060.22;;;11.61;100.00
67931;BME280;63902;52.000;5.954;2023-05-11T05:09:40;101062.84;;;11.63;100.00
67931;BME280;63902;52.000;5.954;2023-05-11T05:10:40;101065.50;;;11.63;100.00
67931;BME280;63902;52.000;5.954;2023-05-11T05:11:41;101061.09;;;11.62;100.00
67931;BME280;63902;52.000;5.954;2023-05-11T05:12:41;101064.63;;;11.62;100.00
67931;BME280;63902;52.000;5.954;2023-05-11T05:13:42;101070.72;;;11.64;100.00
67931;BME280;63902;52.000;5.954;2023-05-11T05:14:42;101061.22;;;11.59;100.00
67931;BME280;63902;52.000;5.954;2023-05-11T05:15:43;101055.91;;;11.59;100.00
67931;BME280;63902;52.000;5.954;2023-05-11T05:16:44;101065.63;;;11.60;100.00
67931;BME280;63902;52.000;5.954;2023-05-11T05:17:44;101068.16;;;11.63;100.00
67931;BME280;63902;52.000;5.954;2023-05-11T05:18:45;101067.34;;;11.61;100.00
67931;BME280;63902;52.000;5.954;2023-05-11T05:19:45;101071.72;;;11.62;100.00
67931;BME280;63902;52.000;5.954;2023-05-11T05:20:48;101068.28;;;11.60;100.00